Time;durP1;ratioP1;P1;durP2;ratioP2;P2;SDS_P1;SDS_P2;PMS_P1;PMS_P2;Temp;Humidity;BMP_temperature;BMP_pressure;BME280_temperature;BME280_humidity;BME280_pressure;Samples;Min_cycle;Max_cycle;Signal;HPM_P1;HPM_P2
2023/12/26 00:00:08;;;;;;;3.05;1.55;;;6.20;99.90;;;;;;5033134;28;20040;-76
2023/12/26 00:02:33;;;;;;;1.85;1.67;;;6.20;99.90;;;;;;5034077;28;20021;-75
2023/12/26 00:04:59;;;;;;;2.78;2.10;;;6.20;99.90;;;;;;5034086;28;20514;-74
2023/12/26 00:07:24;;;;;;;4.15;2.80;;;6.20;99.90;;;;;;5032990;28;20418;-75
2023/12/26 00:09:50;;;;;;;6.80;4.20;;;6.20;99.90;;;;;;5034128;28;20095;-75
2023/12/26 00:12:16;;;;;;;6.47;5.00;;;6.20;99.90;;;;;;5032957;28;20029;-75
2023/12/26 00:14:41;;;;;;;10.02;6.35;;;6.20;99.90;;;;;;5032667;28;20021;-75
2023/12/26 00:17:07;;;;;;;16.65;10.05;;;6.20;99.90;;;;;;5033834;28;20029;-76
2023/12/26 00:19:33;;;;;;;15.63;9.00;;;6.20;99.90;;;;;;5033716;28;20509;-75
2023/12/26 00:21:58;;;;;;;20.95;12.80;;;6.20;99.90;;;;;;5033772;28;20105;-76
2023/12/26 00:24:24;;;;;;;20.20;13.38;;;6.10;99.90;;;;;;5047913;28;20032;-76
2023/12/26 00:26:50;;;;;;;22.85;14.95;;;6.10;99.90;;;;;;5032260;28;20026;-76
2023/12/26 00:29:15;;;;;;;21.70;14.82;;;6.20;99.90;;;;;;5033632;28;20022;-75
2023/12/26 00:31:41;;;;;;;26.02;14.52;;;6.20;99.90;;;;;;5033412;28;20455;-75
2023/12/26 00:34:07;;;;;;;23.13;15.15;;;6.20;99.90;;;;;;5032406;28;20376;-76
2023/12/26 00:36:33;;;;;;;25.98;14.70;;;6.20;99.90;;;;;;5032390;28;20034;-75
2023/12/26 00:38:59;;;;;;;25.85;14.80;;;6.10;99.90;;;;;;5033414;28;20532;-77
2023/12/26 00:41:24;;;;;;;23.70;15.38;;;6.10;99.90;;;;;;5031352;28;20017;-74
2023/12/26 00:43:54;;;;;;;25.50;13.93;;;6.20;99.90;;;;;;5033172;28;20021;-76
2023/12/26 00:46:20;;;;;;;23.88;14.93;;;6.10;99.90;;;;;;5033533;28;20077;-75
2023/12/26 00:48:46;;;;;;;24.65;14.88;;;6.20;99.90;;;;;;5033300;28;20068;-76
2023/12/26 00:51:11;;;;;;;31.42;16.05;;;6.10;99.90;;;;;;5032307;28;20032;-75
2023/12/26 00:53:37;;;;;;;29.00;16.50;;;6.10;99.90;;;;;;5032597;28;20022;-75
2023/12/26 00:56:03;;;;;;;25.73;14.88;;;6.10;99.90;;;;;;5033338;28;20018;-76
2023/12/26 00:58:29;;;;;;;27.13;15.50;;;6.10;99.90;;;;;;5033168;28;20025;-76
2023/12/26 01:00:55;;;;;;;24.85;15.07;;;6.10;99.90;;;;;;5031880;28;20021;-77
2023/12/26 01:03:22;;;;;;;22.90;14.70;;;6.00;99.90;;;;;;5031428;28;20468;-76
2023/12/26 01:05:49;;;;;;;20.23;12.80;;;6.10;99.90;;;;;;5031660;28;20056;-75
2023/12/26 01:08:16;;;;;;;20.60;12.80;;;6.10;99.90;;;;;;5031655;28;20021;-77
2023/12/26 01:10:42;;;;;;;20.60;14.00;;;6.00;99.90;;;;;;5033064;28;20021;-76
2023/12/26 01:13:07;;;;;;;24.33;13.30;;;6.10;99.90;;;;;;5032735;28;20597;-75
2023/12/26 01:15:33;;;;;;;20.48;12.40;;;6.00;99.90;;;;;;5033006;28;20025;-75
2023/12/26 01:17:59;;;;;;;19.10;11.75;;;6.00;99.90;;;;;;5031152;28;20483;-75
2023/12/26 01:20:25;;;;;;;18.23;11.50;;;6.00;99.90;;;;;;5032993;28;20034;-75
2023/12/26 01:22:50;;;;;;;15.68;10.40;;;6.00;99.90;;;;;;5032557;28;20017;-77
2023/12/26 01:25:16;;;;;;;15.82;9.93;;;6.10;99.90;;;;;;5031532;28;20033;-76
2023/12/26 01:27:42;;;;;;;19.15;9.68;;;6.00;99.90;;;;;;5032340;28;20044;-75
2023/12/26 01:30:08;;;;;;;14.77;9.75;;;6.00;99.90;;;;;;5031433;28;20020;-76
2023/12/26 01:32:34;;;;;;;13.88;8.38;;;6.10;99.90;;;;;;5030937;28;20205;-76
2023/12/26 01:35:00;;;;;;;13.48;9.45;;;6.00;99.90;;;;;;5032758;28;20104;-75
2023/12/26 01:37:26;;;;;;;13.88;8.30;;;6.00;99.90;;;;;;5032456;28;20151;-76
2023/12/26 01:39:52;;;;;;;11.25;7.43;;;6.10;99.90;;;;;;5031181;28;20114;-76
2023/12/26 01:42:17;;;;;;;11.30;7.80;;;6.10;99.90;;;;;;5032673;28;20476;-77
2023/12/26 01:44:43;;;;;;;8.18;6.10;;;6.10;99.90;;;;;;5032567;28;20095;-76
2023/12/26 01:47:11;;;;;;;9.93;6.07;;;6.10;99.90;;;;;;5032461;28;20018;-76
2023/12/26 01:49:37;;;;;;;9.02;5.95;;;6.10;99.90;;;;;;5031026;28;20394;-75
2023/12/26 01:52:07;;;;;;;6.93;5.28;;;6.10;99.90;;;;;;5031914;28;20482;-75
2023/12/26 01:54:36;;;;;;;7.88;5.40;;;6.10;99.90;;;;;;5005796;28;20403;-77
2023/12/26 01:57:03;;;;;;;8.23;5.07;;;6.10;99.90;;;;;;5027888;28;20112;-75
2023/12/26 01:59:29;;;;;;;7.25;4.55;;;6.20;99.90;;;;;;5030397;28;20029;-75
2023/12/26 02:01:55;;;;;;;5.60;4.30;;;6.20;99.90;;;;;;5028706;28;20029;-76
2023/12/26 02:04:21;;;;;;;8.45;4.57;;;6.20;99.90;;;;;;5032415;28;20025;-77
2023/12/26 02:06:49;;;;;;;8.13;4.70;;;6.10;99.90;;;;;;5032384;28;20026;-76
2023/12/26 02:09:15;;;;;;;13.35;5.90;;;6.20;99.90;;;;;;5032561;28;20021;-76
2023/12/26 02:11:41;;;;;;;7.28;4.78;;;6.20;99.90;;;;;;5031812;28;20036;-75
2023/12/26 02:14:07;;;;;;;7.90;4.53;;;6.20;99.90;;;;;;5031006;28;20108;-76
2023/12/26 02:16:37;;;;;;;5.35;4.03;;;6.20;99.90;;;;;;5032048;28;20083;-76
2023/12/26 02:19:03;;;;;;;5.30;4.25;;;6.20;99.90;;;;;;5031975;28;20034;-75
2023/12/26 02:21:29;;;;;;;5.13;3.78;;;6.20;99.90;;;;;;5031724;28;20022;-75
2023/12/26 02:23:58;;;;;;;5.63;3.60;;;6.20;99.90;;;;;;5031702;28;20025;-76
2023/12/26 02:26:27;;;;;;;4.53;3.10;;;6.20;99.90;;;;;;5031142;28;20037;-76
2023/12/26 02:28:54;;;;;;;3.53;2.90;;;6.20;99.90;;;;;;5030867;28;20025;-76
2023/12/26 02:31:21;;;;;;;3.30;2.80;;;6.20;99.90;;;;;;5031564;28;20022;-76
2023/12/26 02:33:47;;;;;;;4.28;3.28;;;6.20;99.90;;;;;;5030406;28;20364;-76
2023/12/26 02:36:14;;;;;;;3.65;2.78;;;6.20;99.90;;;;;;5032103;28;20450;-77
2023/12/26 02:38:40;;;;;;;2.53;2.33;;;6.20;99.90;;;;;;5030665;28;20383;-76
2023/12/26 02:41:05;;;;;;;2.58;2.38;;;6.20;99.90;;;;;;5031823;28;20527;-76
2023/12/26 02:43:33;;;;;;;3.75;2.50;;;6.20;99.90;;;;;;5030706;28;20076;-75
2023/12/26 02:45:59;;;;;;;2.88;2.30;;;6.30;99.90;;;;;;5019227;28;20018;-76
2023/12/26 02:48:24;;;;;;;2.33;2.00;;;6.20;99.90;;;;;;5031840;28;20025;-75
2023/12/26 02:50:50;;;;;;;2.38;2.15;;;6.20;99.90;;;;;;5031525;28;20063;-75
2023/12/26 02:53:16;;;;;;;2.17;1.98;;;6.20;99.90;;;;;;5030293;28;20017;-75
2023/12/26 02:55:42;;;;;;;2.33;2.05;;;6.30;99.90;;;;;;5031834;28;20104;-76
2023/12/26 02:58:08;;;;;;;1.98;1.70;;;6.20;99.90;;;;;;5030588;28;20033;-76
2023/12/26 03:00:34;;;;;;;2.22;1.98;;;6.20;99.90;;;;;;5047081;28;20033;-75
2023/12/26 03:03:00;;;;;;;1.85;1.70;;;6.30;99.90;;;;;;5030455;28;20021;-74
2023/12/26 03:05:25;;;;;;;1.88;1.77;;;6.30;99.90;;;;;;5032556;28;20028;-76
2023/12/26 03:07:51;;;;;;;2.35;2.15;;;6.30;99.90;;;;;;5033895;28;20033;-75
2023/12/26 03:10:17;;;;;;;1.85;1.70;;;6.30;99.90;;;;;;5035496;28;20067;-75
2023/12/26 03:12:42;;;;;;;3.20;2.20;;;6.30;99.90;;;;;;5034248;28;20018;-75
2023/12/26 03:15:10;;;;;;;2.30;2.10;;;6.30;99.90;;;;;;5028270;28;20018;-75
2023/12/26 03:17:36;;;;;;;2.45;1.90;;;6.30;99.90;;;;;;5028717;28;20017;-75
2023/12/26 03:20:02;;;;;;;3.17;1.73;;;6.30;99.90;;;;;;5034626;28;20029;-76
2023/12/26 03:22:28;;;;;;;3.22;1.95;;;6.40;99.90;;;;;;5030421;28;20020;-77
2023/12/26 03:24:53;;;;;;;1.92;1.77;;;6.30;99.90;;;;;;5033646;28;20029;-75
2023/12/26 03:27:19;;;;;;;3.05;1.90;;;6.30;99.90;;;;;;5034892;28;20026;-75
2023/12/26 03:29:45;;;;;;;2.03;1.75;;;6.40;99.90;;;;;;5033542;28;20022;-75
2023/12/26 03:32:10;;;;;;;3.63;2.03;;;6.30;99.90;;;;;;5033440;28;20037;-76
2023/12/26 03:34:39;;;;;;;2.08;1.70;;;6.30;99.90;;;;;;5021607;28;20396;-75
2023/12/26 03:37:05;;;;;;;1.55;1.45;;;6.30;99.90;;;;;;5042754;28;20502;-76
2023/12/26 03:39:32;;;;;;;1.42;1.30;;;6.30;99.90;;;;;;5034767;28;20041;-76
2023/12/26 03:41:58;;;;;;;1.13;1.13;;;6.30;99.90;;;;;;5034852;28;20025;-77
2023/12/26 03:44:23;;;;;;;2.67;2.10;;;6.20;99.90;;;;;;5025317;28;20116;-75
2023/12/26 03:46:49;;;;;;;1.98;1.50;;;6.30;99.90;;;;;;5033233;28;20108;-76
2023/12/26 03:49:15;;;;;;;1.60;1.50;;;6.20;99.90;;;;;;5034553;28;20025;-76
2023/12/26 03:51:40;;;;;;;1.65;1.55;;;6.20;99.90;;;;;;5034199;28;20049;-74
2023/12/26 03:54:06;;;;;;;1.75;1.65;;;6.20;99.90;;;;;;5032971;28;20383;-76
2023/12/26 03:56:33;;;;;;;3.28;1.90;;;6.20;99.90;;;;;;5022684;28;20115;-76
2023/12/26 03:59:00;;;;;;;3.00;1.85;;;6.20;99.90;;;;;;5034273;28;20038;-75
2023/12/26 04:01:26;;;;;;;1.63;1.52;;;6.20;99.90;;;;;;5034457;28;20026;-75
2023/12/26 04:03:52;;;;;;;2.45;1.90;;;6.20;99.90;;;;;;5032891;28;20049;-76
2023/12/26 04:06:18;;;;;;;1.70;1.60;;;6.20;99.90;;;;;;5033058;28;20498;-75
2023/12/26 04:08:43;;;;;;;2.58;2.10;;;6.20;99.90;;;;;;5034022;28;20057;-75
2023/12/26 04:11:10;;;;;;;1.88;1.77;;;6.20;99.90;;;;;;5034277;28;20022;-76
2023/12/26 04:13:36;;;;;;;2.35;2.03;;;6.30;99.90;;;;;;5028863;28;20037;-77
2023/12/26 04:16:01;;;;;;;2.15;1.95;;;6.30;99.90;;;;;;5026104;28;20025;-75
2023/12/26 04:18:27;;;;;;;2.60;2.40;;;6.30;99.90;;;;;;5032687;28;20104;-75
2023/12/26 04:20:53;;;;;;;3.67;2.50;;;6.30;99.90;;;;;;5032402;28;20037;-75
2023/12/26 04:23:18;;;;;;;3.75;3.00;;;6.30;99.90;;;;;;5034078;28;20026;-76
2023/12/26 04:25:44;;;;;;;3.35;3.05;;;6.40;99.90;;;;;;5023502;28;20116;-75
2023/12/26 04:28:10;;;;;;;4.05;3.20;;;6.40;99.90;;;;;;5034028;28;20024;-76
2023/12/26 04:30:36;;;;;;;4.50;3.08;;;6.40;99.90;;;;;;5033841;28;20468;-75
2023/12/26 04:33:02;;;;;;;3.15;2.65;;;6.40;99.90;;;;;;5033597;28;20064;-76
2023/12/26 04:35:28;;;;;;;2.85;2.60;;;6.40;99.90;;;;;;5033568;28;20123;-76
2023/12/26 04:37:54;;;;;;;2.75;2.50;;;6.50;99.90;;;;;;5033472;28;20025;-77
2023/12/26 04:40:19;;;;;;;2.78;2.58;;;6.50;99.90;;;;;;5033400;28;20492;-76
2023/12/26 04:42:45;;;;;;;3.03;2.75;;;6.50;99.90;;;;;;5033452;28;20025;-75
2023/12/26 04:45:12;;;;;;;2.50;2.30;;;6.50;99.90;;;;;;5032094;28;20025;-76
2023/12/26 04:47:38;;;;;;;2.22;2.03;;;6.50;99.90;;;;;;5026943;28;20026;-75
2023/12/26 04:50:04;;;;;;;3.05;1.80;;;6.60;99.90;;;;;;5031777;28;20040;-77
2023/12/26 04:52:30;;;;;;;2.25;2.10;;;6.60;99.90;;;;;;5031868;28;20160;-75
2023/12/26 04:54:56;;;;;;;2.10;1.90;;;6.60;99.90;;;;;;5033261;28;20108;-75
2023/12/26 04:57:22;;;;;;;4.05;2.33;;;6.60;99.90;;;;;;5033363;28;20025;-75
2023/12/26 04:59:47;;;;;;;2.17;2.08;;;6.70;99.90;;;;;;5033099;28;20037;-74
2023/12/26 05:02:13;;;;;;;2.40;2.20;;;6.70;99.90;;;;;;5033047;28;20387;-76
2023/12/26 05:04:39;;;;;;;2.63;2.38;;;6.80;99.90;;;;;;5031884;28;20475;-75
2023/12/26 05:07:04;;;;;;;2.83;2.20;;;6.80;99.90;;;;;;5033122;28;20032;-75
2023/12/26 05:09:30;;;;;;;3.05;2.25;;;6.80;99.90;;;;;;5033226;28;20033;-74
2023/12/26 05:11:56;;;;;;;2.30;2.00;;;6.90;99.90;;;;;;5033079;28;20108;-76
2023/12/26 05:14:21;;;;;;;1.58;1.48;;;6.90;99.90;;;;;;5032861;28;20025;-76
2023/12/26 05:16:49;;;;;;;2.45;1.60;;;7.00;99.90;;;;;;5031660;28;20021;-76
2023/12/26 05:19:15;;;;;;;1.65;1.50;;;7.00;99.90;;;;;;5031598;28;20033;-75
2023/12/26 05:21:41;;;;;;;2.28;1.45;;;7.00;99.90;;;;;;5032588;28;20109;-75
2023/12/26 05:24:07;;;;;;;1.65;1.55;;;7.00;99.90;;;;;;5031855;28;20018;-76
2023/12/26 05:26:43;;;;;;;1.55;1.42;;;7.00;99.90;;;;;;5031407;28;20479;-75
2023/12/26 05:29:09;;;;;;;1.85;1.38;;;7.00;99.90;;;;;;5032431;28;20024;-76
2023/12/26 05:31:35;;;;;;;1.50;1.40;;;7.10;99.90;;;;;;5030460;28;20026;-76
2023/12/26 05:34:03;;;;;;;1.75;1.33;;;7.10;99.90;;;;;;5032514;28;20017;-77
2023/12/26 05:36:29;;;;;;;1.52;1.42;;;7.10;99.90;;;;;;5032723;28;20033;-74
2023/12/26 05:38:55;;;;;;;1.42;1.33;;;7.10;99.90;;;;;;5032602;28;20407;-76
2023/12/26 05:41:20;;;;;;;1.65;1.55;;;7.10;99.90;;;;;;5032538;28;20025;-76
2023/12/26 05:43:46;;;;;;;1.52;1.30;;;7.10;99.90;;;;;;5032520;28;20395;-76
2023/12/26 05:46:12;;;;;;;1.60;1.50;;;7.20;99.90;;;;;;5031091;28;20022;-75
2023/12/26 05:48:40;;;;;;;1.60;1.50;;;7.20;99.90;;;;;;5032741;28;20108;-75
2023/12/26 05:51:07;;;;;;;1.73;1.35;;;7.30;99.90;;;;;;5030727;28;20376;-76
2023/12/26 05:53:32;;;;;;;2.45;1.58;;;7.40;99.90;;;;;;5032494;28;20390;-75
2023/12/26 05:55:58;;;;;;;2.00;1.60;;;7.40;99.90;;;;;;5023855;28;20105;-75
2023/12/26 05:58:25;;;;;;;1.63;1.52;;;7.50;99.90;;;;;;5032019;28;20022;-75
2023/12/26 06:00:51;;;;;;;2.08;1.60;;;7.50;99.90;;;;;;5032172;28;20029;-75
2023/12/26 06:03:17;;;;;;;1.60;1.50;;;7.50;99.90;;;;;;5031029;28;20025;-75
2023/12/26 06:05:45;;;;;;;1.85;1.50;;;7.60;99.90;;;;;;5030606;28;20025;-75
2023/12/26 06:08:11;;;;;;;1.60;1.50;;;7.60;99.90;;;;;;5031907;28;20486;-75
2023/12/26 06:10:37;;;;;;;1.35;1.25;;;7.60;99.90;;;;;;5031788;28;20064;-75
2023/12/26 06:13:03;;;;;;;1.48;1.38;;;7.60;99.90;;;;;;5031898;28;20034;-76
2023/12/26 06:15:29;;;;;;;1.40;1.30;;;7.70;99.90;;;;;;5029773;28;20473;-74
2023/12/26 06:17:56;;;;;;;1.42;1.27;;;7.70;99.90;;;;;;5029724;28;20033;-75
2023/12/26 06:20:24;;;;;;;1.20;1.10;;;7.70;99.90;;;;;;5031452;28;20080;-75
2023/12/26 06:22:50;;;;;;;2.13;1.63;;;7.70;99.90;;;;;;5031172;28;20045;-74
2023/12/26 06:25:16;;;;;;;2.40;1.40;;;7.70;99.90;;;;;;5030763;28;20056;-74
2023/12/26 06:27:41;;;;;;;1.45;1.35;;;7.70;99.90;;;;;;5030794;28;20129;-75
2023/12/26 06:30:07;;;;;;;2.60;1.23;;;7.70;99.90;;;;;;5031615;28;20383;-74
2023/12/26 06:32:33;;;;;;;2.17;1.08;;;7.70;99.90;;;;;;5030272;28;20127;-75
2023/12/26 06:34:59;;;;;;;1.13;1.02;;;7.70;99.90;;;;;;5029233;28;20399;-74
2023/12/26 06:37:25;;;;;;;1.13;1.02;;;7.70;99.90;;;;;;5031225;28;20072;-75
2023/12/26 06:39:51;;;;;;;1.20;1.00;;;7.70;99.90;;;;;;5034721;28;20029;-75
2023/12/26 06:42:16;;;;;;;1.85;1.08;;;7.70;99.90;;;;;;5035862;28;20487;-75
2023/12/26 06:44:42;;;;;;;3.92;1.50;;;7.70;99.90;;;;;;5035567;28;20013;-74
2023/12/26 06:47:08;;;;;;;2.45;1.85;;;7.70;99.90;;;;;;5034430;28;20029;-75
2023/12/26 06:49:33;;;;;;;5.88;3.30;;;7.70;99.90;;;;;;5035477;28;20029;-75
2023/12/26 06:52:00;;;;;;;8.63;4.32;;;7.70;99.90;;;;;;5035211;28;20028;-75
2023/12/26 06:54:26;;;;;;;8.15;5.25;;;7.70;99.90;;;;;;5035528;28;20472;-76
2023/12/26 06:56:52;;;;;;;9.38;4.22;;;7.70;99.90;;;;;;5034146;28;20471;-74
2023/12/26 06:59:18;;;;;;;6.97;3.65;;;7.80;99.90;;;;;;5029697;28;20025;-74
2023/12/26 07:01:48;;;;;;;12.82;4.18;;;7.80;99.90;;;;;;5035308;28;20024;-74
2023/12/26 07:04:14;;;;;;;3.97;2.33;;;7.90;99.90;;;;;;5033897;28;20022;-74
2023/12/26 07:06:39;;;;;;;3.17;1.80;;;7.90;99.90;;;;;;5034026;28;20079;-75
2023/12/26 07:09:05;;;;;;;3.65;1.80;;;8.00;99.90;;;;;;5033624;28;20068;-75
2023/12/26 07:11:31;;;;;;;1.83;1.48;;;8.10;99.90;;;;;;5031985;28;20083;-75
2023/12/26 07:13:56;;;;;;;2.85;2.10;;;8.10;99.90;;;;;;5030003;28;20037;-74
2023/12/26 07:16:22;;;;;;;3.97;2.20;;;8.10;99.90;;;;;;5037557;28;20433;-74
2023/12/26 07:18:48;;;;;;;5.82;3.47;;;8.20;99.90;;;;;;5032076;28;20100;-74
2023/12/26 07:21:17;;;;;;;3.83;2.83;;;8.20;99.90;;;;;;5045990;28;20076;-74
2023/12/26 07:23:44;;;;;;;4.05;2.00;;;8.30;99.90;;;;;;5033132;28;20432;-74
2023/12/26 07:26:11;;;;;;;3.40;1.60;;;8.30;99.90;;;;;;5035685;28;20025;-75
2023/12/26 07:28:37;;;;;;;3.35;2.13;;;8.40;99.90;;;;;;5028288;28;20402;-76
2023/12/26 07:31:05;;;;;;;1.63;1.52;;;8.40;99.90;;;;;;5039759;28;20028;-76
2023/12/26 07:33:31;;;;;;;3.28;1.65;;;8.50;99.90;;;;;;5034142;28;20521;-76
2023/12/26 07:35:58;;;;;;;2.30;1.80;;;8.50;99.90;;;;;;5035471;28;20014;-76
2023/12/26 07:38:24;;;;;;;2.75;1.73;;;8.50;99.90;;;;;;5037175;28;20036;-75
2023/12/26 07:40:50;;;;;;;2.38;1.70;;;8.50;99.90;;;;;;5034200;28;20842;-76
2023/12/26 07:43:16;;;;;;;1.63;1.52;;;8.60;99.90;;;;;;5033474;28;20017;-76
2023/12/26 07:45:43;;;;;;;3.08;2.20;;;8.60;99.90;;;;;;5041131;28;20052;-75
2023/12/26 07:48:10;;;;;;;2.78;1.67;;;8.70;99.90;;;;;;5037785;28;20048;-75
2023/12/26 07:50:36;;;;;;;4.18;1.90;;;8.70;99.90;;;;;;5039067;28;20033;-76
2023/12/26 07:53:04;;;;;;;3.78;2.15;;;8.80;99.90;;;;;;5032517;28;20570;-75
2023/12/26 07:55:32;;;;;;;3.15;1.77;;;8.80;99.90;;;;;;5033204;28;20029;-75
2023/12/26 07:57:57;;;;;;;2.17;1.70;;;8.80;99.90;;;;;;5042999;28;20022;-76
2023/12/26 08:00:23;;;;;;;3.50;1.95;;;8.90;99.90;;;;;;5045122;28;20063;-76
2023/12/26 08:02:49;;;;;;;2.45;2.13;;;9.00;99.90;;;;;;5033381;28;20020;-74
2023/12/26 08:05:15;;;;;;;4.03;2.00;;;9.00;99.90;;;;;;5044414;28;20091;-76
2023/12/26 08:07:40;;;;;;;2.00;1.75;;;9.00;99.90;;;;;;5038523;28;20109;-75
2023/12/26 08:10:06;;;;;;;3.60;2.13;;;9.10;99.90;;;;;;5048508;28;20040;-74
2023/12/26 08:12:32;;;;;;;1.52;1.42;;;9.10;99.90;;;;;;5038046;28;20032;-75
2023/12/26 08:14:58;;;;;;;3.33;2.10;;;9.20;99.90;;;;;;5032391;28;20456;-74
2023/12/26 08:17:24;;;;;;;2.35;1.58;;;9.20;99.90;;;;;;5027107;28;20045;-73
2023/12/26 08:19:50;;;;;;;4.63;3.03;;;9.20;99.90;;;;;;5028997;28;20033;-75
2023/12/26 08:22:16;;;;;;;2.83;1.75;;;9.20;99.90;;;;;;5033514;28;20021;-74
2023/12/26 08:24:41;;;;;;;2.28;1.85;;;9.30;99.90;;;;;;5033773;28;20117;-75
2023/12/26 08:27:07;;;;;;;4.85;2.70;;;9.30;99.90;;;;;;5031864;28;20097;-76
2023/12/26 08:29:33;;;;;;;2.33;1.73;;;9.40;99.90;;;;;;5031219;28;20475;-76
2023/12/26 08:31:59;;;;;;;3.70;2.22;;;9.40;99.90;;;;;;5029639;28;20045;-76
2023/12/26 08:34:25;;;;;;;1.73;1.60;;;9.50;99.90;;;;;;5033280;28;20025;-76
2023/12/26 08:36:51;;;;;;;3.97;2.15;;;9.50;99.90;;;;;;5022754;28;20399;-78
2023/12/26 08:39:17;;;;;;;3.67;2.45;;;9.50;99.90;;;;;;5028982;28;20041;-76
2023/12/26 08:41:43;;;;;;;3.28;2.40;;;9.60;99.90;;;;;;5031112;28;20110;-76
2023/12/26 08:44:09;;;;;;;3.55;2.55;;;9.60;99.90;;;;;;5031746;28;20080;-76
2023/12/26 08:46:35;;;;;;;3.97;2.47;;;9.70;99.90;;;;;;5031788;28;20026;-76
2023/12/26 08:49:03;;;;;;;3.80;2.75;;;9.70;99.90;;;;;;5033042;28;20021;-76
2023/12/26 08:51:28;;;;;;;2.78;1.75;;;9.80;99.90;;;;;;5032307;28;20554;-75
2023/12/26 08:53:55;;;;;;;3.17;1.90;;;9.80;99.90;;;;;;5032637;28;20148;-75
2023/12/26 08:56:24;;;;;;;5.15;2.22;;;9.80;99.90;;;;;;5032883;28;20053;-75
2023/12/26 08:58:49;;;;;;;4.03;1.92;;;9.90;99.90;;;;;;5032742;28;20052;-75
2023/12/26 09:01:15;;;;;;;2.78;2.20;;;9.90;99.90;;;;;;5032295;28;20075;-75
2023/12/26 09:03:41;;;;;;;4.53;2.40;;;9.90;99.90;;;;;;5032084;28;20030;-75
2023/12/26 09:06:10;;;;;;;3.67;2.05;;;9.90;99.90;;;;;;5032830;28;20109;-77
2023/12/26 09:08:36;;;;;;;3.95;2.22;;;9.90;99.90;;;;;;5031719;28;20033;-77
2023/12/26 09:11:03;;;;;;;3.75;1.95;;;9.90;99.90;;;;;;5031527;28;20475;-76
2023/12/26 09:13:29;;;;;;;2.30;2.13;;;9.90;99.90;;;;;;5031202;28;20483;-76
2023/12/26 09:15:58;;;;;;;5.65;2.65;;;9.90;99.90;;;;;;5032948;28;20044;-75
2023/12/26 09:18:23;;;;;;;98.97;93.22;;;9.90;99.90;;;;;;5032584;28;20025;-76
2023/12/26 09:20:49;;;;;;;5.32;2.70;;;9.90;99.90;;;;;;5031382;28;20506;-76
2023/12/26 09:23:15;;;;;;;4.63;2.63;;;9.90;99.90;;;;;;5032739;28;20029;-74
2023/12/26 09:25:40;;;;;;;7.95;3.10;;;9.90;99.90;;;;;;5032801;28;20104;-75
2023/12/26 09:28:08;;;;;;;3.50;2.65;;;9.90;99.90;;;;;;5031975;28;20032;-77
2023/12/26 09:30:34;;;;;;;3.60;1.98;;;9.90;99.90;;;;;;5030918;28;20494;-76
2023/12/26 09:33:00;;;;;;;2.53;2.08;;;9.90;99.90;;;;;;5029324;28;20072;-76
2023/12/26 09:35:25;;;;;;;3.85;2.20;;;9.90;99.90;;;;;;5031721;28;20029;-76
2023/12/26 09:37:51;;;;;;;6.10;3.20;;;9.90;99.90;;;;;;5025675;28;20025;-76
2023/12/26 09:40:18;;;;;;;3.35;3.05;;;9.90;99.90;;;;;;5030487;28;20060;-76
2023/12/26 09:42:43;;;;;;;4.63;2.45;;;9.90;99.90;;;;;;5030414;28;20018;-75
2023/12/26 09:45:11;;;;;;;5.72;2.72;;;9.90;99.90;;;;;;5029634;28;20502;-75
2023/12/26 09:47:41;;;;;;;6.85;3.70;;;9.90;99.90;;;;;;5030411;28;20029;-75
2023/12/26 09:50:09;;;;;;;2.80;2.20;;;9.90;99.90;;;;;;5028841;28;20022;-75
2023/12/26 09:52:36;;;;;;;4.50;2.30;;;10.00;99.90;;;;;;5027943;28;20032;-75
2023/12/26 09:55:02;;;;;;;5.45;2.70;;;10.00;99.90;;;;;;5029952;28;20026;-75
2023/12/26 09:57:29;;;;;;;5.47;2.10;;;10.00;99.90;;;;;;5027071;28;20071;-75
2023/12/26 09:59:55;;;;;;;3.95;2.63;;;10.00;99.90;;;;;;5025404;28;20091;-75
2023/12/26 10:02:22;;;;;;;5.85;3.22;;;10.10;99.90;;;;;;5027637;28;20040;-75
2023/12/26 10:04:47;;;;;;;4.45;2.47;;;10.10;99.90;;;;;;5026493;28;20096;-75
2023/12/26 10:07:14;;;;;;;4.85;2.40;;;10.10;99.90;;;;;;5026853;28;20439;-75
2023/12/26 10:09:41;;;;;;;4.47;2.78;;;10.10;99.90;;;;;;5027389;28;20045;-76
2023/12/26 10:12:07;;;;;;;3.30;2.25;;;10.20;99.90;;;;;;5028790;28;20017;-75
2023/12/26 10:14:32;;;;;;;4.95;2.42;;;10.20;99.90;;;;;;5031115;28;20071;-75
2023/12/26 10:16:58;;;;;;;5.13;2.35;;;10.20;99.90;;;;;;5034220;28;20014;-75
2023/12/26 10:19:24;;;;;;;3.30;2.53;;;10.30;99.90;;;;;;5033104;28;20061;-75
2023/12/26 10:21:51;;;;;;;4.43;2.33;;;10.30;99.90;;;;;;5034580;28;20025;-76
2023/12/26 10:24:20;;;;;;;3.85;2.60;;;10.30;99.90;;;;;;5036387;28;20483;-74
2023/12/26 10:26:47;;;;;;;2.10;1.90;;;10.30;99.90;;;;;;5035714;28;20021;-74
2023/12/26 10:29:14;;;;;;;5.03;2.42;;;10.30;99.90;;;;;;5035941;28;20010;-75
2023/12/26 10:31:40;;;;;;;4.28;2.75;;;10.30;99.90;;;;;;5034401;28;20064;-75
2023/12/26 10:34:19;;;;;;;5.35;2.67;;;10.20;99.90;;;;;;5034229;28;20021;-74
2023/12/26 10:36:46;;;;;;;2.88;2.28;;;10.20;99.90;;;;;;5031528;28;20109;-74
2023/12/26 10:39:12;;;;;;;5.03;2.80;;;10.20;99.90;;;;;;5044781;28;20418;-75
2023/12/26 10:41:42;;;;;;;4.55;2.22;;;10.10;99.90;;;;;;5036488;28;20033;-74
2023/12/26 10:44:08;;;;;;;5.28;2.97;;;10.10;99.90;;;;;;5034660;28;20108;-75
2023/12/26 10:46:34;;;;;;;3.97;2.70;;;10.10;99.90;;;;;;5035359;28;20101;-75
2023/12/26 10:49:05;;;;;;;4.28;2.42;;;10.10;99.90;;;;;;5035293;28;20033;-75
2023/12/26 10:51:32;;;;;;;6.28;2.78;;;10.10;99.90;;;;;;5035331;28;20021;-75
2023/12/26 10:54:07;;;;;;;3.63;2.45;;;10.10;99.90;;;;;;5034430;28;20028;-74
2023/12/26 10:56:33;;;;;;;4.13;2.88;;;10.10;99.90;;;;;;5035524;28;20009;-74
2023/12/26 10:59:00;;;;;;;5.88;2.80;;;10.10;99.90;;;;;;5035433;28;20026;-75
2023/12/26 13:54:03;;;;;;;8.13;4.78;;;9.10;99.90;;;;;;5070194;28;20046;-78
2023/12/26 13:57:06;;;;;;;6.35;3.97;;;9.10;99.90;;;;;;5071533;28;20028;-79
2023/12/26 14:00:10;;;;;;;5.70;4.05;;;9.10;99.90;;;;;;5067851;28;20585;-79
2023/12/26 14:02:54;;;;;;;;;;;9.10;99.90;;;;;;5068362;28;20501;-75
2023/12/26 14:05:57;;;;;;;9.68;5.55;;;9.10;99.90;;;;;;5053625;28;19908;-76
2023/12/26 14:09:00;;;;;;;8.88;5.07;;;9.10;99.90;;;;;;5061902;28;20030;-79
2023/12/26 14:12:04;;;;;;;8.82;4.85;;;9.00;99.90;;;;;;5060305;28;20028;-77
2023/12/26 14:15:08;;;;;;;8.90;4.60;;;9.00;99.90;;;;;;5070293;28;20028;-78
2023/12/26 14:18:11;;;;;;;7.68;4.53;;;9.00;99.90;;;;;;5067342;28;20029;-78
2023/12/26 14:21:14;;;;;;;10.55;5.07;;;8.90;99.90;;;;;;5069463;28;20127;-76
2023/12/26 14:24:17;;;;;;;8.05;4.43;;;8.90;99.90;;;;;;5060733;28;20035;-76
2023/12/26 14:27:20;;;;;;;9.32;4.95;;;8.90;99.90;;;;;;5063808;28;20072;-76
2023/12/26 14:30:23;;;;;;;10.52;5.82;;;8.90;99.90;;;;;;5051804;28;20025;-77
2023/12/26 14:33:26;;;;;;;11.23;6.57;;;8.80;99.90;;;;;;5067250;28;20049;-77
2023/12/26 14:36:30;;;;;;;11.23;6.18;;;8.80;99.90;;;;;;5049710;28;20036;-77
2023/12/26 14:39:14;;;;;;;;;;;8.70;99.90;;;;;;5051100;28;20028;-77
2023/12/26 14:42:17;;;;;;;9.95;5.72;;;8.70;99.90;;;;;;5051811;28;19909;-76
2023/12/26 14:45:02;;;;;;;;;;;8.60;99.90;;;;;;5053407;28;20039;-77
2023/12/26 14:48:05;;;;;;;8.52;4.80;;;8.60;99.90;;;;;;5070987;28;19915;-77
2023/12/26 14:51:08;;;;;;;5.88;3.63;;;8.60;99.90;;;;;;5067806;28;20437;-77
2023/12/26 14:54:13;;;;;;;6.13;3.60;;;8.70;99.90;;;;;;5052104;28;20137;-79
2023/12/26 14:57:16;;;;;;;6.18;4.10;;;8.70;99.90;;;;;;5053446;28;20024;-77
2023/12/26 15:00:20;;;;;;;7.10;4.15;;;8.70;99.90;;;;;;5052010;28;20444;-77
2023/12/26 15:02:47;;;;;;;8.07;5.07;;;8.70;99.90;;;;;;5054027;28;20039;-77
2023/12/26 15:05:13;;;;;;;7.63;4.25;;;8.60;99.90;;;;;;5074008;28;20013;-77
2023/12/26 15:07:39;;;;;;;6.63;3.80;;;8.50;99.90;;;;;;5073767;28;20382;-77
2023/12/26 15:10:05;;;;;;;4.03;3.40;;;8.40;99.90;;;;;;5051255;28;20023;-78
2023/12/26 15:12:31;;;;;;;13.60;8.55;;;8.30;99.90;;;;;;5068629;28;20028;-79
2023/12/26 15:14:57;;;;;;;16.55;10.63;;;8.20;99.90;;;;;;5074154;28;20033;-79
2023/12/26 15:17:22;;;;;;;20.02;11.93;;;8.10;99.90;;;;;;5072746;28;20024;-79
2023/12/26 15:19:48;;;;;;;12.73;8.63;;;8.00;99.90;;;;;;5053987;28;20036;-79
2023/12/26 15:22:15;;;;;;;13.30;9.55;;;7.90;99.90;;;;;;5071692;28;20356;-77
2023/12/26 15:24:41;;;;;;;12.68;8.60;;;7.90;99.90;;;;;;5055594;28;20033;-77
2023/12/26 15:27:07;;;;;;;12.15;10.25;;;7.80;99.90;;;;;;5074669;28;20052;-79
2023/12/26 15:29:33;;;;;;;12.43;8.45;;;7.80;99.90;;;;;;5054278;28;20685;-77
2023/12/26 15:31:58;;;;;;;10.60;8.68;;;7.80;99.90;;;;;;5064842;28;20056;-77
2023/12/26 15:34:24;;;;;;;9.65;7.90;;;7.70;99.90;;;;;;5049225;28;20056;-77
2023/12/26 15:36:50;;;;;;;13.63;10.85;;;7.70;99.90;;;;;;5050024;28;20025;-79
2023/12/26 15:39:16;;;;;;;15.68;10.43;;;7.60;99.90;;;;;;5050550;28;20021;-77
2023/12/26 15:41:41;;;;;;;16.27;10.63;;;7.70;99.90;;;;;;5031923;28;20013;-79
2023/12/26 15:44:07;;;;;;;17.17;10.65;;;7.60;99.90;;;;;;5033108;28;20116;-79
2023/12/26 15:46:33;;;;;;;15.43;11.02;;;7.60;99.90;;;;;;5034462;28;20049;-78
2023/12/26 15:49:00;;;;;;;16.65;11.05;;;7.50;99.90;;;;;;5035675;28;20048;-79
2023/12/26 15:51:25;;;;;;;18.88;12.38;;;7.50;99.90;;;;;;5035451;28;20450;-77